Time;durP1;ratioP1;P1;durP2;ratioP2;P2;SDS_P1;SDS_P2;PMS_P1;PMS_P2;Temp;Humidity;BMP_temperature;BMP_pressure;BME280_temperature;BME280_humidity;BME280_pressure;Samples;Min_cycle;Max_cycle;Signal;HPM_P1;HPM_P2
2021/08/31 00:00:24;;;;;;;;;;;22.10;41.20;;;;;;4360722;32;20405;-38
2021/08/31 00:02:51;;;;;;;;;;;22.20;41.00;;;;;;4360621;32;20001;-38
2021/08/31 00:05:17;;;;;;;;;;;22.20;41.10;;;;;;4360400;32;20442;-38
2021/08/31 00:07:43;;;;;;;;;;;22.20;41.20;;;;;;4360590;32;19969;-38
2021/08/31 00:10:10;;;;;;;;;;;22.20;41.30;;;;;;4360808;32;19950;-37
2021/08/31 00:12:36;;;;;;;;;;;22.30;41.40;;;;;;4360766;32;19966;-38
2021/08/31 00:15:03;;;;;;;;;;;22.30;41.50;;;;;;4360669;32;20001;-38
2021/08/31 00:17:29;;;;;;;;;;;22.30;41.50;;;;;;4360323;32;19962;-37
2021/08/31 00:19:56;;;;;;;;;;;22.30;41.60;;;;;;4360596;32;19988;-37
2021/08/31 00:22:22;;;;;;;;;;;22.40;41.80;;;;;;4360052;32;19962;-37
2021/08/31 00:24:48;;;;;;;;;;;22.40;41.80;;;;;;4360062;32;20041;-38
2021/08/31 00:27:14;;;;;;;;;;;22.40;41.80;;;;;;4360345;32;19961;-37
2021/08/31 00:29:40;;;;;;;;;;;22.40;42.00;;;;;;4360446;32;19965;-37
2021/08/31 00:32:07;;;;;;;;;;;22.40;42.10;;;;;;4360212;32;19983;-37
2021/08/31 00:34:33;;;;;;;;;;;22.40;42.10;;;;;;4346161;32;19969;-37
2021/08/31 00:36:59;;;;;;;;;;;22.40;42.20;;;;;;4358791;32;19957;-38
2021/08/31 00:39:26;;;;;;;;;;;22.40;42.40;;;;;;4360200;32;19970;-38
2021/08/31 00:41:53;;;;;;;;;;;22.40;42.70;;;;;;4360131;32;19961;-37
2021/08/31 00:44:26;;;;;;;;;;;22.40;43.00;;;;;;4370641;32;20055;-37
2021/08/31 00:46:56;;;;;;;;;;;22.40;43.10;;;;;;4360098;32;19972;-38
2021/08/31 00:49:23;;;;;;;;;;;22.40;43.30;;;;;;4360172;32;20037;-38
2021/08/31 00:51:49;;;;;;;;;;;22.30;43.40;;;;;;4360091;32;19961;-38
2021/08/31 00:54:16;;;;;;;;;;;22.30;43.40;;;;;;4358649;32;20362;-37
2021/08/31 00:56:46;;;;;;;;;;;22.30;43.40;;;;;;4360223;32;19958;-37
2021/08/31 00:59:14;;;;;;;;;;;22.30;43.50;;;;;;4358365;32;20475;-37
2021/08/31 01:01:40;;;;;;;;;;;22.20;43.60;;;;;;4360171;32;19998;-37
2021/08/31 01:04:08;;;;;;;;;;;22.20;43.60;;;;;;4358136;32;20079;-37
2021/08/31 01:06:34;;;;;;;;;;;22.30;43.90;;;;;;4360061;32;19992;-37
2021/08/31 01:09:00;;;;;;;;;;;22.30;43.90;;;;;;4359614;32;19984;-38
2021/08/31 01:11:28;;;;;;;;;;;22.30;43.90;;;;;;4359577;32;20074;-38
2021/08/31 01:13:54;;;;;;;;;;;22.40;44.10;;;;;;4359374;32;19954;-39
2021/08/31 01:16:20;;;;;;;;;;;22.40;44.10;;;;;;4357957;32;20034;-38
2021/08/31 01:18:46;;;;;;;;;;;22.40;44.10;;;;;;4359533;32;19992;-38
2021/08/31 01:21:12;;;;;;;;;;;22.50;44.40;;;;;;4365668;32;20046;-38
2021/08/31 01:23:39;;;;;;;;;;;22.50;45.40;;;;;;4374706;32;20397;-37
2021/08/31 01:26:05;;;;;;;;;;;22.50;45.40;;;;;;4374284;32;20005;-37
2021/08/31 01:28:32;;;;;;;;;;;22.50;45.60;;;;;;4360038;32;20030;-37
2021/08/31 01:30:59;;;;;;;;;;;22.50;45.80;;;;;;4374581;32;20049;-38
2021/08/31 01:33:27;;;;;;;;;;;22.60;45.80;;;;;;4360349;32;19977;-37
2021/08/31 01:35:53;;;;;;;;;;;22.60;45.90;;;;;;4374232;32;20060;-38
2021/08/31 01:38:19;;;;;;;;;;;22.60;45.80;;;;;;4374082;32;19950;-38
2021/08/31 01:40:46;;;;;;;;;;;22.70;45.80;;;;;;4374005;32;20060;-37
2021/08/31 01:43:23;;;;;;;;;;;22.60;45.70;;;;;;4363920;32;19961;-38
2021/08/31 01:45:49;;;;;;;;;;;22.60;45.70;;;;;;4359530;32;20041;-37
2021/08/31 01:48:15;;;;;;;;;;;22.70;45.80;;;;;;4358760;32;19981;-38
2021/08/31 01:50:42;;;;;;;;;;;22.70;45.90;;;;;;4345380;32;19964;-37
2021/08/31 01:53:08;;;;;;;;;;;22.70;46.10;;;;;;4358937;32;19954;-37
2021/08/31 01:55:34;;;;;;;;;;;22.70;46.10;;;;;;4326522;33;19962;-38
2021/08/31 01:58:00;;;;;;;;;;;22.70;46.40;;;;;;4327101;33;20062;-38
2021/08/31 02:00:27;;;;;;;;;;;22.70;46.60;;;;;;4327015;33;19958;-38
2021/08/31 02:02:53;;;;;;;;;;;22.80;46.80;;;;;;4314472;33;20505;-37
2021/08/31 02:05:19;;;;;;;;;;;22.80;47.10;;;;;;4326855;33;20040;-38
2021/08/31 02:07:45;;;;;;;;;;;22.80;47.30;;;;;;4327147;33;19951;-37
2021/08/31 02:10:11;;;;;;;;;;;22.80;47.40;;;;;;4326484;33;19965;-37
2021/08/31 02:12:37;;;;;;;;;;;22.90;47.60;;;;;;4326471;33;19982;-38
2021/08/31 02:15:04;;;;;;;;;;;22.90;47.50;;;;;;4326488;33;19958;-37
2021/08/31 02:17:30;;;;;;;;;;;23.00;47.20;;;;;;4314231;33;20090;-37
2021/08/31 02:19:57;;;;;;;;;;;23.00;47.20;;;;;;4314419;33;19963;-37
2021/08/31 02:22:23;;;;;;;;;;;23.00;47.20;;;;;;4326395;33;20087;-37
2021/08/31 02:24:49;;;;;;;;;;;23.00;47.00;;;;;;4326456;33;20005;-37
2021/08/31 02:27:15;;;;;;;;;;;23.10;47.10;;;;;;4351740;32;19958;-37
2021/08/31 02:29:41;;;;;;;;;;;23.10;47.10;;;;;;4358560;32;19957;-37
2021/08/31 02:32:08;;;;;;;;;;;23.20;47.00;;;;;;4344603;32;20311;-36
2021/08/31 02:34:34;;;;;;;;;;;23.20;46.90;;;;;;4358078;32;20362;-38
2021/08/31 02:37:00;;;;;;;;;;;23.30;47.00;;;;;;4344736;32;19967;-37
2021/08/31 02:39:26;;;;;;;;;;;23.40;47.10;;;;;;4358067;32;19960;-37
2021/08/31 02:41:52;;;;;;;;;;;23.50;47.20;;;;;;4358857;32;19966;-37
2021/08/31 02:44:19;;;;;;;;;;;23.50;47.10;;;;;;4373199;32;19961;-37
2021/08/31 02:46:45;;;;;;;;;;;23.60;47.10;;;;;;4373640;32;20038;-37
2021/08/31 02:49:11;;;;;;;;;;;23.70;47.10;;;;;;4373204;32;19949;-37
2021/08/31 02:51:37;;;;;;;;;;;23.90;47.00;;;;;;4373437;32;19950;-37
2021/08/31 02:54:03;;;;;;;;;;;24.00;46.60;;;;;;4359223;32;19973;-39
2021/08/31 02:56:30;;;;;;;;;;;24.20;46.30;;;;;;4373313;32;20012;-39
2021/08/31 02:58:56;;;;;;;;;;;24.40;45.90;;;;;;4373365;32;19965;-39
2021/08/31 03:01:31;;;;;;;;;;;24.60;45.50;;;;;;4375907;32;19957;-37
2021/08/31 03:03:58;;;;;;;;;;;24.80;45.00;;;;;;4376561;32;19962;-37
2021/08/31 03:06:25;;;;;;;;;;;25.10;44.70;;;;;;4376450;32;20386;-38
2021/08/31 03:08:51;;;;;;;;;;;25.40;44.20;;;;;;4376180;32;19991;-38
2021/08/31 03:11:17;;;;;;;;;;;25.70;43.60;;;;;;4376514;32;20511;-38
2021/08/31 03:13:44;;;;;;;;;;;26.00;42.90;;;;;;4376208;32;19972;-38
2021/08/31 03:16:10;;;;;;;;;;;26.20;42.10;;;;;;4375956;32;20085;-38
2021/08/31 03:18:36;;;;;;;;;;;26.50;41.80;;;;;;4376538;32;20453;-40
2021/08/31 03:21:02;;;;;;;;;;;26.80;41.40;;;;;;4376037;32;19985;-38
2021/08/31 03:23:29;;;;;;;;;;;27.10;40.80;;;;;;4376121;32;19962;-39
2021/08/31 03:25:55;;;;;;;;;;;27.40;40.20;;;;;;4376016;32;19972;-38
2021/08/31 03:28:21;;;;;;;;;;;27.70;39.30;;;;;;4375975;32;19973;-38
2021/08/31 03:30:47;;;;;;;;;;;27.90;38.50;;;;;;4375956;32;20026;-38
2021/08/31 03:33:13;;;;;;;;;;;28.20;38.30;;;;;;4343062;33;20513;-38
2021/08/31 03:35:40;;;;;;;;;;;28.50;37.70;;;;;;4343617;33;19962;-38
2021/08/31 03:38:06;;;;;;;;;;;28.70;37.20;;;;;;4343741;33;19958;-39
2021/08/31 03:40:32;;;;;;;;;;;28.90;36.50;;;;;;4343446;33;19986;-38
2021/08/31 03:42:58;;;;;;;;;;;29.20;35.70;;;;;;4343151;33;20068;-39
2021/08/31 03:45:25;;;;;;;;;;;29.40;35.10;;;;;;4343721;33;19966;-39
2021/08/31 03:47:51;;;;;;;;;;;29.60;34.50;;;;;;4343450;33;19966;-39
2021/08/31 03:50:17;;;;;;;;;;;29.80;33.90;;;;;;4331308;33;20004;-39
2021/08/31 03:52:43;;;;;;;;;;;30.00;33.40;;;;;;4343068;33;19946;-38
2021/08/31 03:55:10;;;;;;;;;;;30.20;33.10;;;;;;4343244;33;20098;-39
2021/08/31 03:57:36;;;;;;;;;;;30.40;32.70;;;;;;4330954;33;19988;-38
2021/08/31 04:00:04;;;;;;;;;;;30.70;32.50;;;;;;4331215;33;19982;-37
2021/08/31 04:02:30;;;;;;;;;;;30.90;32.10;;;;;;4343146;33;19982;-39
2021/08/31 04:04:56;;;;;;;;;;;31.00;31.50;;;;;;4356679;32;20450;-39
2021/08/31 04:07:23;;;;;;;;;;;31.20;31.30;;;;;;4360512;32;19956;-39
2021/08/31 04:09:50;;;;;;;;;;;31.40;30.90;;;;;;4361087;32;20053;-39
2021/08/31 04:12:16;;;;;;;;;;;31.60;30.70;;;;;;4360157;32;20041;-38
2021/08/31 04:14:43;;;;;;;;;;;31.70;30.30;;;;;;4346560;32;20465;-37
2021/08/31 04:17:09;;;;;;;;;;;31.90;30.20;;;;;;4360370;32;19957;-38
2021/08/31 04:19:36;;;;;;;;;;;32.10;30.10;;;;;;4360136;32;19969;-37
2021/08/31 04:22:02;;;;;;;;;;;32.20;30.00;;;;;;4359974;32;19962;-37
2021/08/31 04:24:28;;;;;;;;;;;32.50;30.00;;;;;;4360274;32;19950;-38
2021/08/31 04:26:54;;;;;;;;;;;32.60;29.90;;;;;;4360121;32;20043;-38
2021/08/31 04:29:21;;;;;;;;;;;32.80;29.80;;;;;;4360730;32;19965;-38
2021/08/31 04:31:47;;;;;;;;;;;32.90;29.80;;;;;;4359994;32;19986;-38
2021/08/31 04:34:13;;;;;;;;;;;33.10;29.70;;;;;;4359894;32;20060;-38
2021/08/31 04:36:40;;;;;;;;;;;33.20;29.40;;;;;;4359849;32;19977;-39
2021/08/31 04:39:06;;;;;;;;;;;33.40;29.40;;;;;;4360171;32;19993;-39
2021/08/31 04:41:32;;;;;;;;;;;33.50;29.20;;;;;;4360128;32;19954;-43
2021/08/31 04:43:58;;;;;;;;;;;33.70;29.10;;;;;;4374433;32;20447;-38
2021/08/31 04:46:24;;;;;;;;;;;33.80;28.90;;;;;;4374875;32;19954;-38
2021/08/31 04:48:51;;;;;;;;;;;33.90;28.60;;;;;;4375005;32;19958;-38
2021/08/31 04:51:17;;;;;;;;;;;33.90;28.30;;;;;;4374886;32;19953;-38
2021/08/31 04:53:43;;;;;;;;;;;34.00;28.30;;;;;;4374618;32;19972;-38
2021/08/31 04:56:12;;;;;;;;;;;34.20;28.30;;;;;;4374909;32;20019;-39
2021/08/31 04:58:38;;;;;;;;;;;34.30;28.30;;;;;;4374529;32;20097;-39
2021/08/31 05:01:04;;;;;;;;;;;34.40;28.20;;;;;;4374733;32;19972;-38
2021/08/31 05:03:31;;;;;;;;;;;34.60;28.00;;;;;;4374671;32;20041;-38
2021/08/31 05:05:58;;;;;;;;;;;34.80;27.70;;;;;;4374723;32;19957;-38
2021/08/31 05:08:24;;;;;;;;;;;34.90;27.80;;;;;;4374563;32;20021;-38
2021/08/31 05:10:50;;;;;;;;;;;35.10;27.80;;;;;;4360054;32;20459;-38
2021/08/31 05:13:16;;;;;;;;;;;35.30;27.60;;;;;;4374435;32;20028;-38
2021/08/31 05:15:43;;;;;;;;;;;35.50;27.60;;;;;;4374381;32;19992;-39
2021/08/31 05:18:09;;;;;;;;;;;35.60;27.40;;;;;;4374292;32;19962;-38
2021/08/31 05:20:35;;;;;;;;;;;35.60;27.30;;;;;;4360121;32;20374;-39
2021/08/31 05:23:01;;;;;;;;;;;35.60;27.40;;;;;;4373566;32;19977;-39
2021/08/31 05:25:28;;;;;;;;;;;35.60;27.40;;;;;;4360720;32;19960;-39
2021/08/31 05:27:55;;;;;;;;;;;35.80;27.30;;;;;;4360381;32;19957;-39
2021/08/31 05:30:21;;;;;;;;;;;35.90;27.20;;;;;;4374253;32;19972;-38
2021/08/31 05:32:47;;;;;;;;;;;36.00;27.10;;;;;;4374110;32;19960;-39
2021/08/31 05:35:14;;;;;;;;;;;36.10;26.70;;;;;;4360289;32;19966;-38
2021/08/31 05:37:40;;;;;;;;;;;36.20;26.50;;;;;;4374121;32;19953;-39
2021/08/31 05:40:07;;;;;;;;;;;36.40;26.30;;;;;;4373772;32;20032;-39
2021/08/31 05:42:33;;;;;;;;;;;36.50;26.20;;;;;;4353757;32;19965;-38
2021/08/31 05:45:00;;;;;;;;;;;36.50;25.90;;;;;;4358709;32;19993;-37
2021/08/31 05:47:26;;;;;;;;;;;36.60;25.80;;;;;;4359164;32;19954;-38
2021/08/31 05:49:52;;;;;;;;;;;36.80;25.80;;;;;;4358906;32;19957;-38
2021/08/31 05:52:19;;;;;;;;;;;37.00;25.80;;;;;;4358779;32;19954;-38
2021/08/31 05:54:45;;;;;;;;;;;37.10;25.70;;;;;;4358597;32;20033;-37
2021/08/31 05:57:11;;;;;;;;;;;37.30;25.20;;;;;;4345049;32;19957;-38
2021/08/31 05:59:41;;;;;;;;;;;37.50;25.00;;;;;;4358916;32;19961;-38
2021/08/31 06:02:08;;;;;;;;;;;37.60;24.50;;;;;;4358701;32;19961;-38
2021/08/31 06:04:36;;;;;;;;;;;37.90;24.40;;;;;;4358622;32;20024;-38
2021/08/31 06:07:04;;;;;;;;;;;38.20;24.20;;;;;;4358702;32;20390;-39
2021/08/31 06:09:31;;;;;;;;;;;38.40;24.10;;;;;;4358662;32;19965;-38
2021/08/31 06:11:58;;;;;;;;;;;38.40;24.10;;;;;;4358832;32;20474;-39
2021/08/31 06:14:24;;;;;;;;;;;38.50;23.80;;;;;;4358724;32;19965;-39
2021/08/31 06:16:51;;;;;;;;;;;38.50;23.80;;;;;;4358405;32;19989;-39
2021/08/31 06:19:17;;;;;;;;;;;38.50;23.70;;;;;;4358660;32;19962;-38
2021/08/31 06:21:43;;;;;;;;;;;38.50;23.60;;;;;;4358172;32;19996;-38
2021/08/31 06:24:09;;;;;;;;;;;38.50;23.60;;;;;;4358710;32;20000;-43
2021/08/31 06:26:35;;;;;;;;;;;38.60;23.50;;;;;;4358003;32;19950;-39
2021/08/31 06:29:02;;;;;;;;;;;38.70;23.60;;;;;;4358375;32;19954;-40
2021/08/31 06:31:28;;;;;;;;;;;38.70;23.40;;;;;;4344770;32;19981;-38
2021/08/31 06:33:54;;;;;;;;;;;38.70;23.30;;;;;;4357936;32;20013;-39
2021/08/31 06:36:20;;;;;;;;;;;38.70;23.10;;;;;;4358247;32;19969;-39
2021/08/31 06:38:46;;;;;;;;;;;38.80;23.30;;;;;;4358595;32;20022;-40
2021/08/31 06:41:13;;;;;;;;;;;39.00;22.70;;;;;;4358508;32;20045;-39
2021/08/31 06:43:39;;;;;;;;;;;38.90;22.60;;;;;;4358045;32;19958;-39
2021/08/31 06:46:05;;;;;;;;;;;39.00;22.70;;;;;;4358571;32;19993;-39
2021/08/31 06:48:31;;;;;;;;;;;39.10;22.50;;;;;;4358562;32;19958;-39
2021/08/31 06:50:58;;;;;;;;;;;39.20;22.40;;;;;;4358453;32;19954;-38
2021/08/31 06:53:24;;;;;;;;;;;39.30;22.20;;;;;;4325533;33;20391;-38
2021/08/31 06:55:50;;;;;;;;;;;39.40;21.90;;;;;;4325950;33;19965;-38
2021/08/31 06:58:16;;;;;;;;;;;39.50;21.60;;;;;;4326196;33;20075;-40
2021/08/31 07:00:43;;;;;;;;;;;39.70;21.60;;;;;;4326342;33;19958;-39
2021/08/31 07:03:09;;;;;;;;;;;39.90;21.70;;;;;;4313905;33;19978;-38
2021/08/31 07:05:35;;;;;;;;;;;40.00;21.50;;;;;;4326160;33;20189;-39
2021/08/31 07:08:02;;;;;;;;;;;40.10;21.40;;;;;;4326512;33;19965;-38
2021/08/31 07:10:28;;;;;;;;;;;40.20;21.40;;;;;;4326012;33;20061;-38
2021/08/31 07:12:54;;;;;;;;;;;40.40;21.50;;;;;;4310804;33;20033;-39
2021/08/31 07:15:20;;;;;;;;;;;40.50;21.20;;;;;;4311758;33;19975;-38
2021/08/31 07:17:47;;;;;;;;;;;40.60;21.40;;;;;;4311147;33;19966;-39
2021/08/31 07:20:13;;;;;;;;;;;40.70;21.50;;;;;;4311397;33;19970;-50
2021/08/31 07:22:39;;;;;;;;;;;40.70;21.50;;;;;;4311231;33;19977;-46
2021/08/31 07:25:08;;;;;;;;;;;40.60;21.30;;;;;;4311655;33;19951;-47
2021/08/31 07:27:35;;;;;;;;;;;40.20;21.00;;;;;;4311613;33;19978;-39
2021/08/31 07:30:01;;;;;;;;;;;39.70;21.30;;;;;;4315791;33;19974;-40
2021/08/31 07:32:27;;;;;;;;;;;39.40;21.40;;;;;;4340884;33;20000;-39
2021/08/31 07:34:53;;;;;;;;;;;39.30;21.60;;;;;;4340397;33;20495;-39
2021/08/31 07:37:19;;;;;;;;;;;39.40;21.50;;;;;;4340623;33;19962;-39
2021/08/31 07:39:46;;;;;;;;;;;39.50;21.40;;;;;;4340186;33;20406;-39
2021/08/31 07:42:12;;;;;;;;;;;39.50;21.30;;;;;;4329523;33;20104;-38
2021/08/31 07:44:38;;;;;;;;;;;39.70;21.30;;;;;;4352609;32;19957;-40
2021/08/31 07:47:05;;;;;;;;;;;39.90;21.20;;;;;;4374994;32;20053;-39
2021/08/31 07:49:31;;;;;;;;;;;40.10;21.20;;;;;;4375587;32;20441;-38
2021/08/31 07:51:57;;;;;;;;;;;40.20;21.20;;;;;;4361503;32;19957;-40
2021/08/31 07:54:23;;;;;;;;;;;40.20;21.30;;;;;;4375614;32;19966;-40
2021/08/31 07:56:52;;;;;;;;;;;40.30;21.10;;;;;;4375692;32;20001;-38
2021/08/31 07:59:18;;;;;;;;;;;40.40;20.90;;;;;;4375141;32;20358;-39
2021/08/31 08:01:45;;;;;;;;;;;40.50;21.00;;;;;;4375166;32;19957;-37
2021/08/31 08:04:11;;;;;;;;;;;40.60;20.80;;;;;;4375436;32;20044;-38
2021/08/31 08:06:39;;;;;;;;;;;40.70;20.90;;;;;;4375286;32;20122;-38
2021/08/31 08:09:05;;;;;;;;;;;40.70;20.70;;;;;;4375646;32;20072;-38
2021/08/31 08:11:31;;;;;;;;;;;40.80;20.50;;;;;;4374950;32;19957;-38
2021/08/31 08:13:58;;;;;;;;;;;41.00;20.50;;;;;;4374832;32;20113;-38
2021/08/31 08:16:24;;;;;;;;;;;41.20;20.60;;;;;;4375026;32;19988;-39
2021/08/31 08:18:51;;;;;;;;;;;41.30;20.50;;;;;;4360979;32;20048;-38
2021/08/31 08:21:17;;;;;;;;;;;41.30;20.40;;;;;;4374743;32;20025;-38
2021/08/31 08:23:43;;;;;;;;;;;41.30;20.30;;;;;;4360964;32;19996;-39
2021/08/31 08:26:10;;;;;;;;;;;41.30;20.20;;;;;;4375235;32;19992;-38
2021/08/31 08:28:37;;;;;;;;;;;41.20;20.20;;;;;;4374925;32;20048;-38
2021/08/31 08:31:03;;;;;;;;;;;41.30;20.30;;;;;;4375420;32;20045;-39
2021/08/31 08:33:32;;;;;;;;;;;41.30;20.20;;;;;;4374651;32;20048;-37
2021/08/31 08:36:00;;;;;;;;;;;41.50;20.10;;;;;;4374772;32;20064;-38
2021/08/31 08:38:26;;;;;;;;;;;41.60;20.20;;;;;;4360817;32;20531;-39
2021/08/31 08:40:52;;;;;;;;;;;41.70;20.10;;;;;;4374778;32;19959;-40
2021/08/31 08:43:19;;;;;;;;;;;41.80;20.00;;;;;;4354235;32;20074;-39
2021/08/31 08:45:46;;;;;;;;;;;41.90;19.70;;;;;;4359269;32;20095;-37
2021/08/31 08:48:19;;;;;;;;;;;42.00;19.70;;;;;;4359640;32;20050;-37
2021/08/31 08:50:46;;;;;;;;;;;42.00;19.50;;;;;;4359612;32;20477;-38
2021/08/31 08:53:12;;;;;;;;;;;42.00;19.30;;;;;;4359789;32;20072;-38
2021/08/31 08:55:38;;;;;;;;;;;42.00;19.30;;;;;;4345797;32;20037;-38
2021/08/31 08:58:05;;;;;;;;;;;42.00;19.30;;;;;;4358787;32;19973;-38
2021/08/31 09:00:50;;;;;;;;;;;42.00;19.30;;;;;;4359469;32;20420;-39
2021/08/31 09:03:20;;;;;;;;;;;42.00;19.30;;;;;;4359508;32;19953;-38
2021/08/31 09:05:46;;;;;;;;;;;41.90;19.10;;;;;;4359449;32;19962;-38
2021/08/31 09:08:13;;;;;;;;;;;41.80;19.10;;;;;;4345328;32;20092;-37
2021/08/31 09:10:45;;;;;;;;;;;41.80;19.20;;;;;;4359512;32;20067;-40
2021/08/31 09:13:11;;;;;;;;;;;42.00;19.10;;;;;;4346048;32;19978;-39
2021/08/31 09:15:39;;;;;;;;;;;42.10;19.10;;;;;;4359325;32;20033;-38
2021/08/31 09:20:32;;;;;;;;;;;42.20;18.90;;;;;;4359524;32;20069;-37
2021/08/31 09:22:59;;;;;;;;;;;42.20;19.30;;;;;;4358969;32;20470;-39
2021/08/31 09:25:38;;;;;;;;;;;42.00;19.10;;;;;;4359363;32;20128;-37
2021/08/31 09:28:23;;;;;;;;;;;41.90;19.20;;;;;;4329625;33;19982;-37
2021/08/31 09:31:13;;;;;;;;;;;42.00;19.30;;;;;;4341532;33;20042;-38
2021/08/31 09:33:49;;;;;;;;;;;42.10;19.30;;;;;;4341927;33;20008;-39
2021/08/31 09:36:20;;;;;;;;;;;42.20;19.40;;;;;;4341775;33;19970;-37
2021/08/31 09:39:09;;;;;;;;;;;42.20;19.30;;;;;;4341596;33;19969;-38
2021/08/31 09:41:54;;;;;;;;;;;42.30;19.10;;;;;;4341342;33;20005;-39
2021/08/31 09:44:39;;;;;;;;;;;42.40;19.00;;;;;;4341766;33;20019;-37
2021/08/31 09:47:23;;;;;;;;;;;42.50;19.00;;;;;;4331205;33;20003;-37
2021/08/31 09:49:50;;;;;;;;;;;42.50;19.00;;;;;;4317076;33;20030;-38
2021/08/31 09:52:16;;;;;;;;;;;42.50;19.10;;;;;;4341013;33;20041;-37
2021/08/31 09:54:47;;;;;;;;;;;42.40;19.40;;;;;;4341607;33;20533;-37
2021/08/31 09:57:39;;;;;;;;;;;42.50;19.50;;;;;;4341439;33;20073;-39
2021/08/31 10:00:10;;;;;;;;;;;42.50;19.30;;;;;;4341287;33;19974;-37
2021/08/31 10:02:37;;;;;;;;;;;42.60;19.30;;;;;;4329513;33;19977;-38
2021/08/31 10:05:05;;;;;;;;;;;42.60;19.20;;;;;;4346458;32;20050;-38
2021/08/31 10:07:31;;;;;;;;;;;42.70;19.10;;;;;;4358554;32;20455;-37
2021/08/31 10:09:57;;;;;;;;;;;42.70;19.20;;;;;;4358199;32;20045;-38
2021/08/31 10:12:24;;;;;;;;;;;42.70;19.20;;;;;;4344414;32;20041;-38
2021/08/31 10:14:56;;;;;;;;;;;42.50;19.60;;;;;;4358263;32;20155;-38
2021/08/31 10:17:24;;;;;;;;;;;42.40;19.90;;;;;;4358528;32;20037;-38
2021/08/31 10:19:51;;;;;;;;;;;42.20;20.50;;;;;;4358730;32;20034;-38
2021/08/31 10:22:18;;;;;;;;;;;42.20;20.50;;;;;;4358240;32;20477;-36
2021/08/31 10:24:44;;;;;;;;;;;42.30;20.30;;;;;;4358270;32;20447;-40
2021/08/31 10:27:30;;;;;;;;;;;42.40;19.80;;;;;;4358615;32;20520;-37
2021/08/31 10:30:15;;;;;;;;;;;42.50;19.80;;;;;;4358132;32;20074;-38
2021/08/31 10:32:44;;;;;;;;;;;42.60;20.20;;;;;;4358266;32;19958;-37
2021/08/31 10:35:31;;;;;;;;;;;42.60;20.30;;;;;;4344782;32;19958;-38
2021/08/31 10:37:58;;;;;;;;;;;42.50;20.50;;;;;;4357919;32;20460;-38
2021/08/31 10:40:34;;;;;;;;;;;42.40;20.70;;;;;;4358170;32;19976;-38
2021/08/31 10:43:01;;;;;;;;;;;42.00;20.50;;;;;;4357751;32;19957;-39
2021/08/31 10:45:43;;;;;;;;;;;41.80;20.20;;;;;;4357969;32;19970;-38
2021/08/31 10:48:22;;;;;;;;;;;41.50;20.20;;;;;;4358337;32;19965;-38
2021/08/31 10:50:48;;;;;;;;;;;41.30;20.80;;;;;;4358218;32;20024;-39
2021/08/31 10:53:44;;;;;;;;;;;41.30;20.90;;;;;;4358342;32;20078;-39
2021/08/31 10:56:22;;;;;;;;;;;41.30;20.60;;;;;;4357948;32;19970;-39
2021/08/31 10:58:55;;;;;;;;;;;41.20;20.30;;;;;;4358455;32;19960;-38
2021/08/31 11:01:34;;;;;;;;;;;40.90;20.20;;;;;;4358441;32;19963;-38
2021/08/31 11:04:01;;;;;;;;;;;40.80;20.30;;;;;;4356732;32;20066;-37
2021/08/31 11:06:32;;;;;;;;;;;40.70;20.90;;;;;;4358177;32;19981;-37
2021/08/31 11:09:15;;;;;;;;;;;40.70;21.20;;;;;;4357810;32;19965;-38
2021/08/31 11:11:58;;;;;;;;;;;40.80;21.30;;;;;;4357839;32;19965;-38
2021/08/31 11:14:35;;;;;;;;;;;40.80;21.20;;;;;;4358242;32;19969;-39
2021/08/31 11:17:01;;;;;;;;;;;40.80;20.70;;;;;;4356386;32;19984;-38
2021/08/31 11:19:28;;;;;;;;;;;40.90;20.40;;;;;;4357755;32;20030;-38
2021/08/31 11:21:55;;;;;;;;;;;40.90;20.10;;;;;;4366659;32;20046;-38
2021/08/31 11:24:22;;;;;;;;;;;41.00;20.20;;;;;;4376185;32;20019;-38
2021/08/31 11:26:48;;;;;;;;;;;41.00;20.30;;;;;;4375685;32;20043;-38
2021/08/31 11:29:15;;;;;;;;;;;41.10;20.50;;;;;;4375864;32;19993;-38
2021/08/31 11:31:41;;;;;;;;;;;41.10;20.60;;;;;;4375777;32;19950;-38
2021/08/31 11:34:11;;;;;;;;;;;41.10;20.30;;;;;;4375315;32;20493;-38
2021/08/31 11:36:38;;;;;;;;;;;41.00;20.00;;;;;;4375419;32;20358;-38
2021/08/31 11:39:06;;;;;;;;;;;41.00;20.10;;;;;;4375524;32;20439;-39
2021/08/31 11:41:35;;;;;;;;;;;41.00;20.30;;;;;;4375598;32;20430;-37
2021/08/31 11:44:08;;;;;;;;;;;41.00;20.40;;;;;;4360544;32;20433;-39
2021/08/31 11:46:36;;;;;;;;;;;41.00;20.50;;;;;;4360801;32;19962;-38
2021/08/31 11:49:08;;;;;;;;;;;41.00;20.30;;;;;;4360732;32;20042;-39
2021/08/31 11:51:35;;;;;;;;;;;41.00;20.20;;;;;;4360517;32;20409;-39
2021/08/31 11:54:08;;;;;;;;;;;40.90;20.10;;;;;;4360472;32;20033;-38
2021/08/31 11:56:35;;;;;;;;;;;40.80;20.10;;;;;;4360199;32;19962;-38
2021/08/31 11:59:01;;;;;;;;;;;40.70;20.30;;;;;;4346570;32;19990;-37
2021/08/31 12:01:29;;;;;;;;;;;40.70;20.50;;;;;;4346308;32;19941;-37
2021/08/31 12:03:56;;;;;;;;;;;40.60;20.60;;;;;;4360412;32;20422;-39
2021/08/31 12:06:22;;;;;;;;;;;40.70;20.60;;;;;;4360250;32;20045;-39
2021/08/31 12:08:48;;;;;;;;;;;40.80;20.40;;;;;;4360340;32;20452;-39
2021/08/31 12:11:14;;;;;;;;;;;40.80;20.20;;;;;;4360310;32;20074;-38
2021/08/31 12:13:46;;;;;;;;;;;40.70;20.20;;;;;;4359900;32;20342;-39
2021/08/31 12:16:14;;;;;;;;;;;40.50;20.30;;;;;;4360119;32;20076;-38
2021/08/31 12:18:40;;;;;;;;;;;40.50;20.70;;;;;;4346110;32;19971;-38
2021/08/31 12:21:13;;;;;;;;;;;40.40;21.00;;;;;;4327584;33;20037;-37
2021/08/31 12:23:39;;;;;;;;;;;40.30;21.60;;;;;;4328274;33;19969;-39
2021/08/31 12:26:05;;;;;;;;;;;40.40;21.00;;;;;;4328025;33;20540;-38
2021/08/31 12:28:31;;;;;;;;;;;40.30;21.10;;;;;;4328350;33;19969;-38
2021/08/31 12:30:57;;;;;;;;;;;40.20;21.00;;;;;;4315868;33;19969;-39
2021/08/31 12:33:28;;;;;;;;;;;40.10;20.70;;;;;;4315466;33;20534;-38
2021/08/31 12:36:09;;;;;;;;;;;40.10;20.70;;;;;;4327994;33;19959;-39
2021/08/31 12:38:43;;;;;;;;;;;40.20;20.80;;;;;;4327934;33;19970;-38
2021/08/31 12:41:23;;;;;;;;;;;40.30;20.70;;;;;;4327794;33;19966;-39
2021/08/31 12:43:58;;;;;;;;;;;40.40;20.80;;;;;;4341867;33;20036;-38
2021/08/31 12:46:25;;;;;;;;;;;40.30;20.90;;;;;;4342403;33;19978;-38
2021/08/31 12:49:13;;;;;;;;;;;40.30;21.10;;;;;;4342501;33;20423;-38
2021/08/31 12:51:41;;;;;;;;;;;40.30;21.20;;;;;;4347801;32;19969;-38
2021/08/31 12:54:20;;;;;;;;;;;40.20;21.10;;;;;;4359339;32;19954;-38
2021/08/31 12:56:51;;;;;;;;;;;40.00;21.20;;;;;;4347106;32;20480;-38
2021/08/31 12:59:17;;;;;;;;;;;39.80;21.10;;;;;;4359337;32;20041;-37
2021/08/31 13:01:53;;;;;;;;;;;39.70;21.30;;;;;;4345520;32;20039;-39
2021/08/31 13:04:19;;;;;;;;;;;39.50;21.20;;;;;;4359497;32;20001;-38
2021/08/31 13:06:48;;;;;;;;;;;39.40;21.30;;;;;;4358845;32;19969;-39
2021/08/31 13:09:16;;;;;;;;;;;39.20;21.30;;;;;;4357998;32;20068;-38
2021/08/31 13:11:44;;;;;;;;;;;39.20;21.50;;;;;;4359795;32;19968;-38
2021/08/31 13:14:15;;;;;;;;;;;39.10;21.50;;;;;;4359416;32;19969;-38
2021/08/31 13:16:42;;;;;;;;;;;39.00;21.50;;;;;;4345365;32;19981;-37
2021/08/31 13:19:08;;;;;;;;;;;38.80;21.50;;;;;;4359279;32;20030;-37
2021/08/31 13:21:35;;;;;;;;;;;38.70;21.50;;;;;;4358920;32;20486;-38
2021/08/31 13:24:01;;;;;;;;;;;38.60;21.60;;;;;;4359646;32;19954;-38
2021/08/31 13:26:29;;;;;;;;;;;38.60;21.70;;;;;;4359021;32;20459;-39
2021/08/31 13:28:55;;;;;;;;;;;38.50;21.60;;;;;;4359241;32;19954;-38
2021/08/31 13:31:21;;;;;;;;;;;38.40;21.70;;;;;;4360001;32;19954;-38
2021/08/31 13:33:48;;;;;;;;;;;38.30;21.70;;;;;;4344967;32;19966;-39
2021/08/31 13:36:14;;;;;;;;;;;38.10;21.80;;;;;;4358870;32;20335;-39
2021/08/31 13:38:41;;;;;;;;;;;37.90;21.70;;;;;;4358918;32;20417;-38
2021/08/31 13:41:07;;;;;;;;;;;37.70;21.80;;;;;;4358866;32;20369;-39
2021/08/31 13:43:33;;;;;;;;;;;37.50;22.10;;;;;;4356605;32;20456;-39
2021/08/31 13:45:59;;;;;;;;;;;37.40;22.30;;;;;;4374011;32;19975;-39
2021/08/31 13:48:27;;;;;;;;;;;37.20;22.40;;;;;;4373696;32;19968;-38
2021/08/31 13:50:54;;;;;;;;;;;37.10;22.70;;;;;;4360354;32;19965;-39
2021/08/31 13:53:20;;;;;;;;;;;37.00;23.00;;;;;;4373713;32;20487;-39
2021/08/31 13:55:47;;;;;;;;;;;36.80;23.40;;;;;;4359403;32;20071;-38
2021/08/31 13:58:15;;;;;;;;;;;36.70;23.60;;;;;;4373125;32;20042;-39
2021/08/31 14:00:43;;;;;;;;;;;36.60;23.80;;;;;;4326059;33;19997;-39
2021/08/31 14:03:10;;;;;;;;;;;36.60;24.00;;;;;;4314147;33;20040;-38
2021/08/31 14:05:37;;;;;;;;;;;36.50;24.10;;;;;;4326824;33;20011;-39
2021/08/31 14:08:04;;;;;;;;;;;36.40;24.20;;;;;;4326226;33;19958;-39
2021/08/31 14:10:31;;;;;;;;;;;36.40;24.30;;;;;;4326281;33;20545;-39
2021/08/31 14:12:58;;;;;;;;;;;36.30;24.30;;;;;;4326212;33;20422;-39
2021/08/31 14:15:28;;;;;;;;;;;36.20;24.30;;;;;;4326096;33;19970;-38
2021/08/31 14:17:55;;;;;;;;;;;36.10;24.30;;;;;;4314835;33;20482;-39
2021/08/31 14:20:22;;;;;;;;;;;36.10;24.30;;;;;;4326026;33;20395;-38
2021/08/31 14:22:48;;;;;;;;;;;36.00;24.20;;;;;;4326192;33;20430;-39